Terminal Aerodrome Forecast
Issued by NWS Detroit/Pontiac, MI

Home | Current Version | Previous Version | Text Only | Print | Product List | Glossary On
Versions: 1 2 3 4 5 6 7 8 9 10 11 12 13 14 15 16 17 18 19 20 21 22 23 24 25 26 27 28
000
FTUS43 KDTX 220214 AAA
TAFDTW
TAF AMD
KDTW 220214Z 2202/2306 11004KT P6SM SCT025 BKN060
     FM220600 11005KT 5SM BR SCT060 BKN200
     FM221400 11007KT P6SM FEW020 BKN200
     FM222000 12008KT P6SM BKN040=

USA.gov is the U.S. government's official web portal to all federal, state and local government web resources and services.